sensor_id;sensor_type;location;lat;lon;timestamp;temperature;humidity
42201;DHT22;27869;51.442;7.540;2023-01-15T00:01:41;7.70;99.90
42201;DHT22;27869;51.442;7.540;2023-01-15T00:04:11;7.60;99.90
42201;DHT22;27869;51.442;7.540;2023-01-15T00:06:39;7.50;99.90
42201;DHT22;27869;51.442;7.540;2023-01-15T00:09:12;7.40;99.90
42201;DHT22;27869;51.442;7.540;2023-01-15T00:11:40;7.30;99.90
42201;DHT22;27869;51.442;7.540;2023-01-15T00:14:06;7.30;99.90
42201;DHT22;27869;51.442;7.540;2023-01-15T00:16:33;7.20;99.90
42201;DHT22;27869;51.442;7.540;2023-01-15T00:19:01;7.10;99.90
42201;DHT22;27869;51.442;7.540;2023-01-15T00:21:29;7.00;99.90
42201;DHT22;27869;51.442;7.540;2023-01-15T00:23:56;7.10;99.90
42201;DHT22;27869;51.442;7.540;2023-01-15T00:26:41;6.90;99.90
42201;DHT22;27869;51.442;7.540;2023-01-15T00:29:26;6.90;99.90
42201;DHT22;27869;51.442;7.540;2023-01-15T00:31:55;6.80;99.90
42201;DHT22;27869;51.442;7.540;2023-01-15T00:34:23;6.80;99.90
42201;DHT22;27869;51.442;7.540;2023-01-15T00:36:50;6.70;99.90
42201;DHT22;27869;51.442;7.540;2023-01-15T00:39:17;6.70;99.90
42201;DHT22;27869;51.442;7.540;2023-01-15T00:41:45;6.60;99.90
42201;DHT22;27869;51.442;7.540;2023-01-15T00:44:12;6.60;99.90
42201;DHT22;27869;51.442;7.540;2023-01-15T00:46:39;6.60;99.90
42201;DHT22;27869;51.442;7.540;2023-01-15T00:49:07;6.60;99.90
42201;DHT22;27869;51.442;7.540;2023-01-15T00:51:34;6.50;99.90
42201;DHT22;27869;51.442;7.540;2023-01-15T00:54:02;6.50;99.90
42201;DHT22;27869;51.442;7.540;2023-01-15T00:56:29;6.50;99.90
42201;DHT22;27869;51.442;7.540;2023-01-15T00:59:00;6.50;99.90
42201;DHT22;27869;51.442;7.540;2023-01-15T01:01:27;6.50;99.90
42201;DHT22;27869;51.442;7.540;2023-01-15T01:03:54;6.40;99.90
42201;DHT22;27869;51.442;7.540;2023-01-15T01:06:21;6.40;99.90
42201;DHT22;27869;51.442;7.540;2023-01-15T01:08:48;6.40;99.90
42201;DHT22;27869;51.442;7.540;2023-01-15T01:11:18;6.40;99.90
42201;DHT22;27869;51.442;7.540;2023-01-15T01:13:45;6.40;99.90
42201;DHT22;27869;51.442;7.540;2023-01-15T01:16:27;6.40;99.90
42201;DHT22;27869;51.442;7.540;2023-01-15T01:18:57;6.40;99.90
42201;DHT22;27869;51.442;7.540;2023-01-15T01:21:24;6.50;99.90
42201;DHT22;27869;51.442;7.540;2023-01-15T01:23:52;6.50;99.90
42201;DHT22;27869;51.442;7.540;2023-01-15T01:26:19;6.50;99.90
42201;DHT22;27869;51.442;7.540;2023-01-15T01:28:48;6.50;99.90
42201;DHT22;27869;51.442;7.540;2023-01-15T01:31:15;6.50;99.90
42201;DHT22;27869;51.442;7.540;2023-01-15T01:33:46;6.50;99.90
42201;DHT22;27869;51.442;7.540;2023-01-15T01:36:13;6.60;99.90
42201;DHT22;27869;51.442;7.540;2023-01-15T01:38:40;6.60;99.90
42201;DHT22;27869;51.442;7.540;2023-01-15T01:41:07;6.60;99.90
42201;DHT22;27869;51.442;7.540;2023-01-15T01:43:51;6.60;99.90
42201;DHT22;27869;51.442;7.540;2023-01-15T01:46:18;6.60;99.90
42201;DHT22;27869;51.442;7.540;2023-01-15T01:48:48;6.60;99.90
42201;DHT22;27869;51.442;7.540;2023-01-15T01:51:17;6.60;99.90
42201;DHT22;27869;51.442;7.540;2023-01-15T01:53:45;6.60;99.90
42201;DHT22;27869;51.442;7.540;2023-01-15T01:56:12;6.60;99.90
42201;DHT22;27869;51.442;7.540;2023-01-15T01:58:42;6.60;99.90
42201;DHT22;27869;51.442;7.540;2023-01-15T02:01:11;6.60;99.90
42201;DHT22;27869;51.442;7.540;2023-01-15T02:03:38;6.60;99.90
42201;DHT22;27869;51.442;7.540;2023-01-15T02:06:08;6.60;99.90
42201;DHT22;27869;51.442;7.540;2023-01-15T02:08:36;6.60;99.90
42201;DHT22;27869;51.442;7.540;2023-01-15T02:11:05;6.60;99.90
42201;DHT22;27869;51.442;7.540;2023-01-15T02:13:36;6.50;99.90
42201;DHT22;27869;51.442;7.540;2023-01-15T02:16:08;6.50;99.90
42201;DHT22;27869;51.442;7.540;2023-01-15T02:18:42;6.50;99.90
42201;DHT22;27869;51.442;7.540;2023-01-15T02:21:16;6.50;99.90
42201;DHT22;27869;51.442;7.540;2023-01-15T02:24:00;6.50;99.90
42201;DHT22;27869;51.442;7.540;2023-01-15T02:26:56;6.50;99.90
42201;DHT22;27869;51.442;7.540;2023-01-15T02:29:30;6.50;99.90
42201;DHT22;27869;51.442;7.540;2023-01-15T02:32:01;6.50;99.90
42201;DHT22;27869;51.442;7.540;2023-01-15T02:34:33;6.50;99.90
42201;DHT22;27869;51.442;7.540;2023-01-15T02:37:04;6.50;99.90
42201;DHT22;27869;51.442;7.540;2023-01-15T02:39:33;6.50;99.90
42201;DHT22;27869;51.442;7.540;2023-01-15T02:42:06;6.50;99.90
42201;DHT22;27869;51.442;7.540;2023-01-15T02:44:37;6.50;99.90
42201;DHT22;27869;51.442;7.540;2023-01-15T02:47:06;6.50;99.90
42201;DHT22;27869;51.442;7.540;2023-01-15T02:49:36;6.50;99.90
42201;DHT22;27869;51.442;7.540;2023-01-15T02:52:06;6.50;99.90
42201;DHT22;27869;51.442;7.540;2023-01-15T02:54:38;6.50;99.90
42201;DHT22;27869;51.442;7.540;2023-01-15T02:57:09;6.50;99.90
42201;DHT22;27869;51.442;7.540;2023-01-15T02:59:38;6.50;99.90
42201;DHT22;27869;51.442;7.540;2023-01-15T03:02:08;6.50;99.90
42201;DHT22;27869;51.442;7.540;2023-01-15T03:04:40;6.50;99.90
42201;DHT22;27869;51.442;7.540;2023-01-15T03:07:13;6.50;99.90
42201;DHT22;27869;51.442;7.540;2023-01-15T03:09:44;6.50;99.90
42201;DHT22;27869;51.442;7.540;2023-01-15T03:12:15;6.40;99.90
42201;DHT22;27869;51.442;7.540;2023-01-15T03:14:51;6.50;99.90
42201;DHT22;27869;51.442;7.540;2023-01-15T03:17:23;6.50;99.90
42201;DHT22;27869;51.442;7.540;2023-01-15T03:19:53;6.50;99.90
42201;DHT22;27869;51.442;7.540;2023-01-15T03:22:25;6.50;99.90
42201;DHT22;27869;51.442;7.540;2023-01-15T03:24:54;6.50;99.90
42201;DHT22;27869;51.442;7.540;2023-01-15T03:27:24;6.50;99.90
42201;DHT22;27869;51.442;7.540;2023-01-15T03:29:53;6.50;99.90
42201;DHT22;27869;51.442;7.540;2023-01-15T03:32:21;6.40;99.90
42201;DHT22;27869;51.442;7.540;2023-01-15T03:34:50;6.40;99.90
42201;DHT22;27869;51.442;7.540;2023-01-15T03:37:17;6.40;99.90
42201;DHT22;27869;51.442;7.540;2023-01-15T03:39:45;6.40;99.90
42201;DHT22;27869;51.442;7.540;2023-01-15T03:42:24;6.40;99.90
42201;DHT22;27869;51.442;7.540;2023-01-15T03:45:01;6.40;99.90
42201;DHT22;27869;51.442;7.540;2023-01-15T03:47:39;6.40;99.90
42201;DHT22;27869;51.442;7.540;2023-01-15T03:50:14;6.40;99.90
42201;DHT22;27869;51.442;7.540;2023-01-15T03:52:47;6.40;99.90
42201;DHT22;27869;51.442;7.540;2023-01-15T03:55:18;6.40;99.90
42201;DHT22;27869;51.442;7.540;2023-01-15T03:57:50;6.40;99.90
42201;DHT22;27869;51.442;7.540;2023-01-15T04:00:20;6.40;99.90
42201;DHT22;27869;51.442;7.540;2023-01-15T04:02:50;6.40;99.90
42201;DHT22;27869;51.442;7.540;2023-01-15T04:05:18;6.40;99.90
42201;DHT22;27869;51.442;7.540;2023-01-15T04:07:46;6.40;99.90
42201;DHT22;27869;51.442;7.540;2023-01-15T04:10:13;6.40;99.90
42201;DHT22;27869;51.442;7.540;2023-01-15T04:12:40;6.40;99.90
42201;DHT22;27869;51.442;7.540;2023-01-15T04:15:09;6.40;99.90
42201;DHT22;27869;51.442;7.540;2023-01-15T04:17:36;6.40;99.90
42201;DHT22;27869;51.442;7.540;2023-01-15T04:20:04;6.40;99.90
42201;DHT22;27869;51.442;7.540;2023-01-15T04:22:31;6.40;99.90
42201;DHT22;27869;51.442;7.540;2023-01-15T04:25:00;6.40;99.90
42201;DHT22;27869;51.442;7.540;2023-01-15T04:27:27;6.40;99.90
42201;DHT22;27869;51.442;7.540;2023-01-15T04:29:54;6.30;99.90
42201;DHT22;27869;51.442;7.540;2023-01-15T04:32:22;6.40;99.90
42201;DHT22;27869;51.442;7.540;2023-01-15T04:34:49;6.30;99.90
42201;DHT22;27869;51.442;7.540;2023-01-15T04:37:16;6.40;99.90
42201;DHT22;27869;51.442;7.540;2023-01-15T04:39:43;6.40;99.90
42201;DHT22;27869;51.442;7.540;2023-01-15T04:42:12;6.40;99.90
42201;DHT22;27869;51.442;7.540;2023-01-15T04:44:56;6.40;99.90
42201;DHT22;27869;51.442;7.540;2023-01-15T04:47:25;6.40;99.90
42201;DHT22;27869;51.442;7.540;2023-01-15T04:49:51;6.40;99.90
42201;DHT22;27869;51.442;7.540;2023-01-15T04:52:18;6.40;99.90
42201;DHT22;27869;51.442;7.540;2023-01-15T04:54:45;6.30;99.90
42201;DHT22;27869;51.442;7.540;2023-01-15T04:57:12;6.30;99.90
42201;DHT22;27869;51.442;7.540;2023-01-15T04:59:39;6.30;99.90
42201;DHT22;27869;51.442;7.540;2023-01-15T05:02:06;6.30;99.90
42201;DHT22;27869;51.442;7.540;2023-01-15T05:04:34;6.30;99.90
42201;DHT22;27869;51.442;7.540;2023-01-15T05:07:02;6.30;99.90
42201;DHT22;27869;51.442;7.540;2023-01-15T05:09:29;6.30;99.90
42201;DHT22;27869;51.442;7.540;2023-01-15T05:11:55;6.30;99.90
42201;DHT22;27869;51.442;7.540;2023-01-15T05:14:22;6.30;99.90
42201;DHT22;27869;51.442;7.540;2023-01-15T05:16:49;6.30;99.90
42201;DHT22;27869;51.442;7.540;2023-01-15T05:19:16;6.30;99.90
42201;DHT22;27869;51.442;7.540;2023-01-15T05:21:44;6.30;99.90
42201;DHT22;27869;51.442;7.540;2023-01-15T05:24:13;6.30;99.90
42201;DHT22;27869;51.442;7.540;2023-01-15T05:26:41;6.30;99.90
42201;DHT22;27869;51.442;7.540;2023-01-15T05:29:09;6.30;99.90
42201;DHT22;27869;51.442;7.540;2023-01-15T05:31:36;6.30;99.90
42201;DHT22;27869;51.442;7.540;2023-01-15T05:34:04;6.30;99.90
42201;DHT22;27869;51.442;7.540;2023-01-15T05:36:31;6.30;99.90
42201;DHT22;27869;51.442;7.540;2023-01-15T05:39:01;6.30;99.90
42201;DHT22;27869;51.442;7.540;2023-01-15T05:41:28;6.30;99.90
42201;DHT22;27869;51.442;7.540;2023-01-15T05:44:13;6.30;99.90
42201;DHT22;27869;51.442;7.540;2023-01-15T05:46:41;6.30;99.90
42201;DHT22;27869;51.442;7.540;2023-01-15T05:49:10;6.30;99.90
42201;DHT22;27869;51.442;7.540;2023-01-15T05:51:38;6.30;99.90
42201;DHT22;27869;51.442;7.540;2023-01-15T05:54:09;6.30;99.90
42201;DHT22;27869;51.442;7.540;2023-01-15T05:56:37;6.30;99.90
42201;DHT22;27869;51.442;7.540;2023-01-15T05:59:05;6.30;99.90
42201;DHT22;27869;51.442;7.540;2023-01-15T06:01:32;6.30;99.90
42201;DHT22;27869;51.442;7.540;2023-01-15T06:03:59;6.30;99.90
42201;DHT22;27869;51.442;7.540;2023-01-15T06:06:26;6.30;99.90
42201;DHT22;27869;51.442;7.540;2023-01-15T06:08:53;6.30;99.90
42201;DHT22;27869;51.442;7.540;2023-01-15T06:11:22;6.30;99.90
42201;DHT22;27869;51.442;7.540;2023-01-15T06:13:49;6.30;99.90
42201;DHT22;27869;51.442;7.540;2023-01-15T06:16:16;6.30;99.90
42201;DHT22;27869;51.442;7.540;2023-01-15T06:18:44;6.30;99.90
42201;DHT22;27869;51.442;7.540;2023-01-15T06:21:12;6.30;99.90
42201;DHT22;27869;51.442;7.540;2023-01-15T06:23:40;6.30;99.90
42201;DHT22;27869;51.442;7.540;2023-01-15T06:26:09;6.30;99.90
42201;DHT22;27869;51.442;7.540;2023-01-15T06:28:38;6.30;99.90
42201;DHT22;27869;51.442;7.540;2023-01-15T06:31:05;6.30;99.90
42201;DHT22;27869;51.442;7.540;2023-01-15T06:33:32;6.30;99.90
42201;DHT22;27869;51.442;7.540;2023-01-15T06:36:02;6.30;99.90
42201;DHT22;27869;51.442;7.540;2023-01-15T06:38:29;6.30;99.90
42201;DHT22;27869;51.442;7.540;2023-01-15T06:40:57;6.30;99.90
42201;DHT22;27869;51.442;7.540;2023-01-15T06:43:24;6.30;99.90
42201;DHT22;27869;51.442;7.540;2023-01-15T06:46:10;6.30;99.90
42201;DHT22;27869;51.442;7.540;2023-01-15T06:49:03;6.30;99.90
42201;DHT22;27869;51.442;7.540;2023-01-15T06:51:30;6.30;99.90
42201;DHT22;27869;51.442;7.540;2023-01-15T06:53:56;6.30;99.90
42201;DHT22;27869;51.442;7.540;2023-01-15T06:56:23;6.30;99.90
42201;DHT22;27869;51.442;7.540;2023-01-15T06:58:50;6.30;99.90
42201;DHT22;27869;51.442;7.540;2023-01-15T07:01:18;6.30;99.90
42201;DHT22;27869;51.442;7.540;2023-01-15T07:03:45;6.40;99.90
42201;DHT22;27869;51.442;7.540;2023-01-15T07:06:12;6.40;99.90
42201;DHT22;27869;51.442;7.540;2023-01-15T07:08:39;6.40;99.90
42201;DHT22;27869;51.442;7.540;2023-01-15T07:11:08;6.40;99.90
42201;DHT22;27869;51.442;7.540;2023-01-15T07:13:35;6.40;99.90
42201;DHT22;27869;51.442;7.540;2023-01-15T07:16:04;6.40;99.90
42201;DHT22;27869;51.442;7.540;2023-01-15T07:18:53;6.40;99.90
42201;DHT22;27869;51.442;7.540;2023-01-15T07:21:21;6.30;99.90
42201;DHT22;27869;51.442;7.540;2023-01-15T07:23:48;6.30;99.90
42201;DHT22;27869;51.442;7.540;2023-01-15T07:26:15;6.30;99.90
42201;DHT22;27869;51.442;7.540;2023-01-15T07:28:42;6.30;99.90
42201;DHT22;27869;51.442;7.540;2023-01-15T07:31:08;6.30;99.90
42201;DHT22;27869;51.442;7.540;2023-01-15T07:33:35;6.40;99.90
42201;DHT22;27869;51.442;7.540;2023-01-15T07:36:04;6.40;99.90
42201;DHT22;27869;51.442;7.540;2023-01-15T07:38:31;6.40;99.90
42201;DHT22;27869;51.442;7.540;2023-01-15T07:40:59;6.40;99.90
42201;DHT22;27869;51.442;7.540;2023-01-15T07:43:43;6.40;99.90
42201;DHT22;27869;51.442;7.540;2023-01-15T07:46:28;6.40;99.90
42201;DHT22;27869;51.442;7.540;2023-01-15T07:49:13;6.40;99.90
42201;DHT22;27869;51.442;7.540;2023-01-15T07:51:59;6.40;99.90
42201;DHT22;27869;51.442;7.540;2023-01-15T07:54:26;6.40;99.90
42201;DHT22;27869;51.442;7.540;2023-01-15T07:56:55;6.40;99.90
42201;DHT22;27869;51.442;7.540;2023-01-15T07:59:22;6.40;99.90
42201;DHT22;27869;51.442;7.540;2023-01-15T08:01:49;6.40;99.90
42201;DHT22;27869;51.442;7.540;2023-01-15T08:04:16;6.30;99.90
42201;DHT22;27869;51.442;7.540;2023-01-15T08:06:43;6.30;99.90
42201;DHT22;27869;51.442;7.540;2023-01-15T08:09:11;6.40;99.90
42201;DHT22;27869;51.442;7.540;2023-01-15T08:11:38;6.40;99.90
42201;DHT22;27869;51.442;7.540;2023-01-15T08:14:23;6.40;99.90
42201;DHT22;27869;51.442;7.540;2023-01-15T08:17:07;6.40;99.90
42201;DHT22;27869;51.442;7.540;2023-01-15T08:19:34;6.40;99.90
42201;DHT22;27869;51.442;7.540;2023-01-15T08:22:02;6.40;99.90
42201;DHT22;27869;51.442;7.540;2023-01-15T08:24:30;6.40;99.90
42201;DHT22;27869;51.442;7.540;2023-01-15T08:26:57;6.40;99.90
42201;DHT22;27869;51.442;7.540;2023-01-15T08:29:23;6.40;99.90
42201;DHT22;27869;51.442;7.540;2023-01-15T08:31:50;6.40;99.90
42201;DHT22;27869;51.442;7.540;2023-01-15T08:34:17;6.40;99.90
42201;DHT22;27869;51.442;7.540;2023-01-15T08:36:44;6.40;99.90
42201;DHT22;27869;51.442;7.540;2023-01-15T08:39:12;6.40;99.90
42201;DHT22;27869;51.442;7.540;2023-01-15T08:41:40;6.40;99.90
42201;DHT22;27869;51.442;7.540;2023-01-15T08:44:08;6.40;99.90
42201;DHT22;27869;51.442;7.540;2023-01-15T08:46:35;6.40;99.90
42201;DHT22;27869;51.442;7.540;2023-01-15T08:49:02;6.50;99.90
42201;DHT22;27869;51.442;7.540;2023-01-15T08:51:29;6.50;99.90
42201;DHT22;27869;51.442;7.540;2023-01-15T08:53:56;6.50;99.90
42201;DHT22;27869;51.442;7.540;2023-01-15T08:56:23;6.40;99.90
42201;DHT22;27869;51.442;7.540;2023-01-15T08:58:51;6.40;99.90
42201;DHT22;27869;51.442;7.540;2023-01-15T09:01:18;6.40;99.90
42201;DHT22;27869;51.442;7.540;2023-01-15T09:03:45;6.40;99.90
42201;DHT22;27869;51.442;7.540;2023-01-15T09:06:12;6.40;99.90
42201;DHT22;27869;51.442;7.540;2023-01-15T09:08:39;6.40;99.90
42201;DHT22;27869;51.442;7.540;2023-01-15T09:11:07;6.40;99.90
42201;DHT22;27869;51.442;7.540;2023-01-15T09:13:37;6.40;99.90
42201;DHT22;27869;51.442;7.540;2023-01-15T09:16:07;6.50;99.90
42201;DHT22;27869;51.442;7.540;2023-01-15T09:18:36;6.40;99.90
42201;DHT22;27869;51.442;7.540;2023-01-15T09:21:04;6.40;99.90
42201;DHT22;27869;51.442;7.540;2023-01-15T09:23:31;6.40;99.90
42201;DHT22;27869;51.442;7.540;2023-01-15T09:25:59;6.40;99.90
42201;DHT22;27869;51.442;7.540;2023-01-15T09:28:27;6.40;99.90
42201;DHT22;27869;51.442;7.540;2023-01-15T09:30:54;6.30;99.90
42201;DHT22;27869;51.442;7.540;2023-01-15T09:33:22;6.40;99.90
42201;DHT22;27869;51.442;7.540;2023-01-15T09:35:50;6.40;99.90
42201;DHT22;27869;51.442;7.540;2023-01-15T09:38:19;6.40;99.90
42201;DHT22;27869;51.442;7.540;2023-01-15T09:40:47;6.30;99.90
42201;DHT22;27869;51.442;7.540;2023-01-15T09:43:23;6.30;99.90
42201;DHT22;27869;51.442;7.540;2023-01-15T09:45:55;6.30;99.90
42201;DHT22;27869;51.442;7.540;2023-01-15T09:48:36;6.30;99.90
42201;DHT22;27869;51.442;7.540;2023-01-15T09:51:17;6.30;99.90
42201;DHT22;27869;51.442;7.540;2023-01-15T09:54:06;6.20;99.90
42201;DHT22;27869;51.442;7.540;2023-01-15T09:56:37;6.30;99.90
42201;DHT22;27869;51.442;7.540;2023-01-15T09:59:11;6.30;99.90
42201;DHT22;27869;51.442;7.540;2023-01-15T10:01:39;6.20;99.90
42201;DHT22;27869;51.442;7.540;2023-01-15T10:04:15;6.30;99.90
42201;DHT22;27869;51.442;7.540;2023-01-15T10:06:47;6.30;99.90
42201;DHT22;27869;51.442;7.540;2023-01-15T10:09:22;6.30;99.90
42201;DHT22;27869;51.442;7.540;2023-01-15T10:11:57;6.30;99.90
42201;DHT22;27869;51.442;7.540;2023-01-15T10:14:46;6.30;99.90
42201;DHT22;27869;51.442;7.540;2023-01-15T10:17:24;6.30;99.90
42201;DHT22;27869;51.442;7.540;2023-01-15T10:19:53;6.30;99.90
42201;DHT22;27869;51.442;7.540;2023-01-15T10:22:42;6.30;99.90
42201;DHT22;27869;51.442;7.540;2023-01-15T10:25:15;6.30;99.90
42201;DHT22;27869;51.442;7.540;2023-01-15T10:27:46;6.30;99.90
42201;DHT22;27869;51.442;7.540;2023-01-15T10:30:22;6.40;99.90
42201;DHT22;27869;51.442;7.540;2023-01-15T10:32:53;6.40;99.90
42201;DHT22;27869;51.442;7.540;2023-01-15T10:35:29;6.40;99.90
42201;DHT22;27869;51.442;7.540;2023-01-15T10:38:01;6.40;99.90
42201;DHT22;27869;51.442;7.540;2023-01-15T10:40:45;6.40;99.90
42201;DHT22;27869;51.442;7.540;2023-01-15T10:43:19;6.50;99.90
42201;DHT22;27869;51.442;7.540;2023-01-15T10:45:52;6.50;99.90
42201;DHT22;27869;51.442;7.540;2023-01-15T10:48:27;6.50;99.90
42201;DHT22;27869;51.442;7.540;2023-01-15T10:51:00;6.50;99.90
42201;DHT22;27869;51.442;7.540;2023-01-15T10:53:33;6.50;99.90
42201;DHT22;27869;51.442;7.540;2023-01-15T10:56:06;6.50;99.90
42201;DHT22;27869;51.442;7.540;2023-01-15T10:58:38;6.50;99.90
42201;DHT22;27869;51.442;7.540;2023-01-15T11:01:10;6.50;99.90
42201;DHT22;27869;51.442;7.540;2023-01-15T11:03:40;6.50;99.90
42201;DHT22;27869;51.442;7.540;2023-01-15T11:06:13;6.50;99.90
42201;DHT22;27869;51.442;7.540;2023-01-15T11:08:43;6.50;99.90
42201;DHT22;27869;51.442;7.540;2023-01-15T11:11:19;6.50;99.90
42201;DHT22;27869;51.442;7.540;2023-01-15T11:13:54;6.50;99.90
42201;DHT22;27869;51.442;7.540;2023-01-15T11:16:41;6.50;99.90
42201;DHT22;27869;51.442;7.540;2023-01-15T11:19:29;6.50;99.90
42201;DHT22;27869;51.442;7.540;2023-01-15T11:22:09;6.60;99.90
42201;DHT22;27869;51.442;7.540;2023-01-15T11:24:37;6.60;99.90
42201;DHT22;27869;51.442;7.540;2023-01-15T11:27:15;6.60;99.90
42201;DHT22;27869;51.442;7.540;2023-01-15T11:29:43;6.70;99.90
42201;DHT22;27869;51.442;7.540;2023-01-15T11:32:25;6.70;99.90
42201;DHT22;27869;51.442;7.540;2023-01-15T11:34:54;6.70;99.90
42201;DHT22;27869;51.442;7.540;2023-01-15T11:37:23;6.70;99.90
42201;DHT22;27869;51.442;7.540;2023-01-15T11:39:57;6.80;99.90
42201;DHT22;27869;51.442;7.540;2023-01-15T11:42:30;6.80;99.90
42201;DHT22;27869;51.442;7.540;2023-01-15T11:45:17;6.80;99.90
42201;DHT22;27869;51.442;7.540;2023-01-15T11:48:08;6.80;99.90
42201;DHT22;27869;51.442;7.540;2023-01-15T11:51:02;6.80;99.90
42201;DHT22;27869;51.442;7.540;2023-01-15T11:53:38;6.80;99.90
42201;DHT22;27869;51.442;7.540;2023-01-15T11:56:09;6.80;99.90
42201;DHT22;27869;51.442;7.540;2023-01-15T11:58:40;6.80;99.90
42201;DHT22;27869;51.442;7.540;2023-01-15T12:01:11;6.80;99.90
42201;DHT22;27869;51.442;7.540;2023-01-15T12:03:40;6.80;99.90
42201;DHT22;27869;51.442;7.540;2023-01-15T12:06:10;6.80;99.90
42201;DHT22;27869;51.442;7.540;2023-01-15T12:08:45;6.90;99.90
42201;DHT22;27869;51.442;7.540;2023-01-15T12:11:43;6.80;99.90
42201;DHT22;27869;51.442;7.540;2023-01-15T12:14:30;6.80;99.90
42201;DHT22;27869;51.442;7.540;2023-01-15T12:17:02;6.90;99.90
42201;DHT22;27869;51.442;7.540;2023-01-15T12:19:36;6.90;99.90
42201;DHT22;27869;51.442;7.540;2023-01-15T12:22:19;6.90;99.90
42201;DHT22;27869;51.442;7.540;2023-01-15T12:27:57;6.80;99.90
42201;DHT22;27869;51.442;7.540;2023-01-15T12:30:34;6.80;99.90
42201;DHT22;27869;51.442;7.540;2023-01-15T12:33:20;6.90;99.90
42201;DHT22;27869;51.442;7.540;2023-01-15T12:35:56;6.80;99.90
42201;DHT22;27869;51.442;7.540;2023-01-15T12:38:34;6.80;99.90
42201;DHT22;27869;51.442;7.540;2023-01-15T12:41:09;6.80;99.90
42201;DHT22;27869;51.442;7.540;2023-01-15T12:43:40;6.80;99.90
42201;DHT22;27869;51.442;7.540;2023-01-15T12:46:28;6.80;99.90
42201;DHT22;27869;51.442;7.540;2023-01-15T12:48:58;6.80;99.90
42201;DHT22;27869;51.442;7.540;2023-01-15T12:51:34;6.80;99.90
42201;DHT22;27869;51.442;7.540;2023-01-15T12:54:09;6.80;99.90
42201;DHT22;27869;51.442;7.540;2023-01-15T12:56:46;6.80;99.90
42201;DHT22;27869;51.442;7.540;2023-01-15T12:59:18;6.80;99.90
42201;DHT22;27869;51.442;7.540;2023-01-15T13:01:52;6.80;99.90
42201;DHT22;27869;51.442;7.540;2023-01-15T13:04:24;6.80;99.90
42201;DHT22;27869;51.442;7.540;2023-01-15T13:06:57;6.80;99.90
42201;DHT22;27869;51.442;7.540;2023-01-15T13:09:34;6.80;99.90
42201;DHT22;27869;51.442;7.540;2023-01-15T13:12:06;6.80;99.90
42201;DHT22;27869;51.442;7.540;2023-01-15T13:14:36;6.90;99.90
42201;DHT22;27869;51.442;7.540;2023-01-15T13:17:10;6.80;99.90
42201;DHT22;27869;51.442;7.540;2023-01-15T13:19:44;6.90;99.90
42201;DHT22;27869;51.442;7.540;2023-01-15T13:22:18;6.90;99.90
42201;DHT22;27869;51.442;7.540;2023-01-15T13:27:52;7.00;99.90
42201;DHT22;27869;51.442;7.540;2023-01-15T13:30:40;7.10;99.90
42201;DHT22;27869;51.442;7.540;2023-01-15T13:33:17;7.10;99.90
42201;DHT22;27869;51.442;7.540;2023-01-15T13:35:52;7.10;99.90
42201;DHT22;27869;51.442;7.540;2023-01-15T13:38:23;7.00;99.90
42201;DHT22;27869;51.442;7.540;2023-01-15T13:40:54;7.00;99.90
42201;DHT22;27869;51.442;7.540;2023-01-15T13:43:29;7.00;99.90
42201;DHT22;27869;51.442;7.540;2023-01-15T13:46:01;7.00;99.90
42201;DHT22;27869;51.442;7.540;2023-01-15T13:48:32;7.00;99.90
42201;DHT22;27869;51.442;7.540;2023-01-15T13:51:02;7.00;99.90
42201;DHT22;27869;51.442;7.540;2023-01-15T13:53:31;6.90;99.90
42201;DHT22;27869;51.442;7.540;2023-01-15T13:56:02;6.90;99.90
42201;DHT22;27869;51.442;7.540;2023-01-15T13:58:32;6.90;99.90
42201;DHT22;27869;51.442;7.540;2023-01-15T14:01:08;6.90;99.90
42201;DHT22;27869;51.442;7.540;2023-01-15T14:03:54;6.90;99.90
42201;DHT22;27869;51.442;7.540;2023-01-15T14:06:38;6.90;99.90
42201;DHT22;27869;51.442;7.540;2023-01-15T14:09:10;6.90;99.90
42201;DHT22;27869;51.442;7.540;2023-01-15T14:11:42;6.90;99.90
42201;DHT22;27869;51.442;7.540;2023-01-15T14:14:33;6.90;99.90
42201;DHT22;27869;51.442;7.540;2023-01-15T14:17:25;6.90;99.90
42201;DHT22;27869;51.442;7.540;2023-01-15T14:20:13;6.90;99.90
42201;DHT22;27869;51.442;7.540;2023-01-15T14:22:53;6.80;99.90
42201;DHT22;27869;51.442;7.540;2023-01-15T14:25:32;6.80;99.90
42201;DHT22;27869;51.442;7.540;2023-01-15T14:31:27;6.80;99.90
42201;DHT22;27869;51.442;7.540;2023-01-15T14:34:12;6.80;99.90
42201;DHT22;27869;51.442;7.540;2023-01-15T14:36:49;6.90;99.90
42201;DHT22;27869;51.442;7.540;2023-01-15T14:39:32;6.90;99.90
42201;DHT22;27869;51.442;7.540;2023-01-15T14:42:08;6.90;99.90
42201;DHT22;27869;51.442;7.540;2023-01-15T14:44:59;6.90;99.90
42201;DHT22;27869;51.442;7.540;2023-01-15T14:47:29;6.90;99.90
42201;DHT22;27869;51.442;7.540;2023-01-15T14:53:38;6.90;99.90
42201;DHT22;27869;51.442;7.540;2023-01-15T14:56:16;6.90;99.90
42201;DHT22;27869;51.442;7.540;2023-01-15T14:58:48;6.80;99.90
42201;DHT22;27869;51.442;7.540;2023-01-15T15:01:26;6.90;99.90
42201;DHT22;27869;51.442;7.540;2023-01-15T15:03:57;6.80;99.90
42201;DHT22;27869;51.442;7.540;2023-01-15T15:06:25;6.80;99.90
42201;DHT22;27869;51.442;7.540;2023-01-15T15:08:59;6.80;99.90
42201;DHT22;27869;51.442;7.540;2023-01-15T15:11:35;6.80;99.90
42201;DHT22;27869;51.442;7.540;2023-01-15T15:14:23;6.80;99.90
42201;DHT22;27869;51.442;7.540;2023-01-15T15:16:52;6.80;99.90
42201;DHT22;27869;51.442;7.540;2023-01-15T15:19:26;6.80;99.90
42201;DHT22;27869;51.442;7.540;2023-01-15T15:21:57;6.80;99.90
42201;DHT22;27869;51.442;7.540;2023-01-15T15:24:28;6.80;99.90
42201;DHT22;27869;51.442;7.540;2023-01-15T15:27:07;6.80;99.90
42201;DHT22;27869;51.442;7.540;2023-01-15T15:29:34;6.80;99.90
42201;DHT22;27869;51.442;7.540;2023-01-15T15:32:01;6.80;99.90
42201;DHT22;27869;51.442;7.540;2023-01-15T15:34:30;6.80;99.90
42201;DHT22;27869;51.442;7.540;2023-01-15T15:37:02;6.80;99.90
42201;DHT22;27869;51.442;7.540;2023-01-15T15:39:38;6.80;99.90
42201;DHT22;27869;51.442;7.540;2023-01-15T15:42:12;6.80;99.90
42201;DHT22;27869;51.442;7.540;2023-01-15T15:45:00;6.80;99.90
42201;DHT22;27869;51.442;7.540;2023-01-15T15:47:45;6.80;99.90
42201;DHT22;27869;51.442;7.540;2023-01-15T15:50:31;6.80;99.90
42201;DHT22;27869;51.442;7.540;2023-01-15T15:53:00;6.80;99.90
42201;DHT22;27869;51.442;7.540;2023-01-15T15:55:36;6.80;99.90
42201;DHT22;27869;51.442;7.540;2023-01-15T15:58:05;6.80;99.90
42201;DHT22;27869;51.442;7.540;2023-01-15T16:00:38;6.80;99.90
42201;DHT22;27869;51.442;7.540;2023-01-15T16:03:16;6.80;99.90
42201;DHT22;27869;51.442;7.540;2023-01-15T16:05:54;6.80;99.90
42201;DHT22;27869;51.442;7.540;2023-01-15T16:08:21;6.80;99.90
42201;DHT22;27869;51.442;7.540;2023-01-15T16:10:51;6.70;99.90
42201;DHT22;27869;51.442;7.540;2023-01-15T16:13:22;6.70;99.90
42201;DHT22;27869;51.442;7.540;2023-01-15T16:15:51;6.80;99.90
42201;DHT22;27869;51.442;7.540;2023-01-15T16:18:23;6.80;99.90
42201;DHT22;27869;51.442;7.540;2023-01-15T16:20:50;6.70;99.90
42201;DHT22;27869;51.442;7.540;2023-01-15T16:23:20;6.70;99.90
42201;DHT22;27869;51.442;7.540;2023-01-15T16:26:04;6.70;99.90
42201;DHT22;27869;51.442;7.540;2023-01-15T16:28:40;6.80;99.90